Time;durP1;ratioP1;P1;durP2;ratioP2;P2;SDS_P1;SDS_P2;PMS_P1;PMS_P2;Temp;Humidity;BMP_temperature;BMP_pressure;BME280_temperature;BME280_humidity;BME280_pressure;Samples;Min_cycle;Max_cycle;Signal;HPM_P1;HPM_P2
2022/07/04 00:01:40;;;;;;;8.15;7.35;;;;;;;17.24;71.18;100715.50;3501648;80;20971;-76
2022/07/04 00:06:32;;;;;;;8.08;6.78;;;;;;;17.24;71.41;100706.73;3513979;79;21505;-76
2022/07/04 00:11:23;;;;;;;7.42;6.72;;;;;;;17.23;71.34;100701.06;3428294;79;20948;-76
2022/07/04 00:16:15;;;;;;;8.45;7.62;;;;;;;17.16;71.38;100698.94;3433353;80;21920;-76
2022/07/04 00:21:06;;;;;;;8.05;7.10;;;;;;;17.10;71.43;100698.56;3433398;79;21022;-76
2022/07/04 00:25:57;;;;;;;7.78;7.05;;;;;;;17.07;71.58;100701.21;3476269;80;20967;-77
2022/07/04 00:36:13;;;;;;;9.15;7.35;;;;;;;17.03;71.72;100695.57;3594457;76;20872;-76
2022/07/04 00:41:04;;;;;;;8.20;7.42;;;;;;;17.00;71.90;100691.66;3685950;76;21173;-77
2022/07/04 00:45:56;;;;;;;10.00;8.13;;;;;;;16.97;72.22;100690.36;3608202;76;20957;-77
2022/07/04 00:50:49;;;;;;;8.45;7.65;;;;;;;16.99;72.36;100678.11;3630494;77;21431;-76
2022/07/04 00:55:41;;;;;;;8.00;7.28;;;;;;;17.00;72.33;100673.27;3631473;76;21352;-76
2022/07/04 01:00:32;;;;;;;8.90;8.03;;;;;;;16.97;72.32;100671.98;3601971;76;21448;-77
2022/07/04 01:05:23;;;;;;;7.72;6.95;;;;;;;16.90;72.28;100672.92;3709632;75;22084;-76
2022/07/04 01:10:15;;;;;;;8.95;7.92;;;;;;;16.87;72.50;100663.33;3666975;76;21042;-76
2022/07/04 01:15:08;;;;;;;7.20;6.60;;;;;;;16.82;72.42;100660.30;3541124;76;20944;-77
2022/07/04 01:19:59;;;;;;;7.97;6.87;;;;;;;16.77;72.32;100653.77;3644240;77;20998;-77
2022/07/04 01:24:51;;;;;;;7.78;7.10;;;;;;;16.69;72.30;100656.47;3602238;76;20938;-77
2022/07/04 01:29:42;;;;;;;8.35;7.42;;;;;;;16.60;72.25;100653.94;3611165;76;22101;-77
2022/07/04 01:34:34;;;;;;;9.15;8.23;;;;;;;16.52;72.36;100651.36;3656075;76;21056;-77
2022/07/04 01:39:25;;;;;;;8.50;7.70;;;;;;;16.46;72.40;100661.05;3631506;76;21547;-77
2022/07/04 01:44:17;;;;;;;7.40;6.78;;;;;;;16.40;72.54;100659.36;3661073;75;21480;-76
2022/07/04 01:49:08;;;;;;;7.47;6.80;;;;;;;16.36;72.66;100666.38;3658687;76;21175;-76
2022/07/04 01:53:59;;;;;;;8.75;7.60;;;;;;;16.31;72.58;100669.48;3616594;76;21602;-76
2022/07/04 01:58:50;;;;;;;8.95;7.50;;;;;;;16.23;72.78;100671.27;3640482;76;21534;-76
2022/07/04 02:03:42;;;;;;;9.15;7.60;;;;;;;16.20;72.67;100673.91;3598023;76;20976;-76
2022/07/04 02:13:43;;;;;;;8.98;7.30;;;;;;;16.14;72.91;100665.64;3642768;76;20996;-76
2022/07/04 02:18:34;;;;;;;9.38;6.75;;;;;;;16.10;72.99;100663.07;3543646;79;21297;-76
2022/07/04 02:23:26;;;;;;;8.98;8.08;;;;;;;16.04;72.88;100668.34;3608442;78;20991;-76
2022/07/04 02:28:18;;;;;;;7.92;7.12;;;;;;;16.01;73.04;100667.94;3582090;78;20951;-76
2022/07/04 02:33:09;;;;;;;8.23;7.42;;;;;;;15.98;73.00;100667.49;3570633;77;20975;-76
2022/07/04 02:38:00;;;;;;;8.30;7.58;;;;;;;15.94;73.05;100665.78;3522221;78;20976;-76
2022/07/04 02:42:52;;;;;;;7.47;6.83;;;;;;;15.93;72.90;100663.16;3524407;78;20856;-76
2022/07/04 02:47:43;;;;;;;9.00;7.37;;;;;;;15.89;72.95;100660.14;3594954;77;21125;-76
2022/07/04 02:52:34;;;;;;;8.08;7.37;;;;;;;15.86;72.97;100653.14;3592743;78;21033;-76
2022/07/04 02:57:26;;;;;;;7.95;7.10;;;;;;;15.85;73.01;100652.73;3547964;78;20961;-77
2022/07/04 03:02:17;;;;;;;7.35;6.72;;;;;;;15.85;72.99;100653.17;3570377;78;20939;-76
2022/07/04 03:07:08;;;;;;;7.97;6.55;;;;;;;15.82;72.98;100657.98;3575218;78;21002;-76
2022/07/04 03:12:00;;;;;;;7.37;6.78;;;;;;;15.81;72.98;100656.26;3570720;78;21035;-76
2022/07/04 03:16:51;;;;;;;8.65;7.80;;;;;;;15.85;73.16;100652.73;3559806;78;21441;-76
2022/07/04 03:21:42;;;;;;;7.28;6.58;;;;;;;16.24;73.05;100657.29;3585123;78;21006;-77
2022/07/04 03:26:34;;;;;;;10.63;6.97;;;;;;;16.89;72.28;100658.07;3564117;78;21002;-77
2022/07/04 03:31:27;;;;;;;6.87;6.28;;;;;;;17.58;71.82;100669.55;3555701;78;21226;-77
2022/07/04 03:36:20;;;;;;;10.03;6.75;;;;;;;18.91;70.41;100660.11;3513027;78;20986;-77
2022/07/04 03:41:11;;;;;;;7.28;6.17;;;;;;;19.92;68.27;100667.73;3687102;76;21429;-77
2022/07/04 03:46:03;;;;;;;7.55;6.80;;;;;;;19.49;67.33;100667.77;3617765;76;21036;-77
2022/07/04 03:50:55;;;;;;;8.15;6.62;;;;;;;18.83;67.72;100672.53;3619411;76;21016;-77
2022/07/04 03:55:47;;;;;;;8.10;7.28;;;;;;;18.70;68.06;100670.98;3663974;76;21494;-77
2022/07/04 04:00:38;;;;;;;7.20;6.60;;;;;;;18.28;68.50;100671.22;3632139;76;21787;-77
2022/07/04 04:05:31;;;;;;;7.92;6.92;;;;;;;17.95;69.43;100676.98;3566301;76;21027;-77
2022/07/04 04:10:24;;;;;;;7.78;7.08;;;;;;;17.76;69.92;100671.95;3647841;77;20993;-77
2022/07/04 04:15:16;;;;;;;8.28;7.33;;;;;;;17.59;70.40;100681.81;3601692;76;20961;-76
2022/07/04 04:20:12;;;;;;;8.43;7.62;;;;;;;17.42;70.81;100675.01;3631922;76;21063;-77
2022/07/04 04:25:01;;;;;;;8.95;8.05;;;;;;;17.25;71.33;100670.38;3632373;76;20977;-77
2022/07/04 04:29:53;;;;;;;8.55;7.87;;;;;;;17.17;71.91;100661.70;3598453;76;20973;-77
2022/07/04 04:34:44;;;;;;;10.75;9.80;;;;;;;17.22;72.41;100662.08;3644806;76;20908;-76
2022/07/04 04:39:36;;;;;;;9.85;8.95;;;;;;;17.29;73.01;100657.63;3687383;76;21602;-76
2022/07/04 04:44:27;;;;;;;10.68;8.68;;;;;;;17.34;73.30;100658.45;3583013;76;20914;-76
2022/07/04 04:49:19;;;;;;;11.57;10.55;;;;;;;17.44;73.76;100656.59;3621019;76;22171;-76
2022/07/04 04:54:11;;;;;;;10.28;9.33;;;;;;;17.53;73.94;100648.14;3665439;76;20928;-76
2022/07/04 04:59:02;;;;;;;12.80;11.60;;;;;;;17.69;74.18;100651.89;3660126;77;20977;-76
2022/07/04 05:03:53;;;;;;;12.05;11.00;;;;;;;17.84;74.42;100649.03;3666637;77;21463;-76
2022/07/04 05:08:44;;;;;;;12.45;11.43;;;;;;;18.03;74.67;100658.03;3656148;76;21136;-76
2022/07/04 05:13:36;;;;;;;11.20;10.23;;;;;;;18.19;75.09;100656.90;3638050;76;20914;-76
2022/07/04 05:18:27;;;;;;;11.73;10.72;;;;;;;18.38;75.41;100657.91;3696144;76;20976;-77
2022/07/04 05:23:18;;;;;;;13.40;10.50;;;;;;;18.58;75.56;100658.47;3622038;76;21057;-76
2022/07/04 05:28:09;;;;;;;12.82;11.73;;;;;;;18.75;75.53;100659.93;3633920;76;20965;-77
2022/07/04 05:33:04;;;;;;;12.35;11.28;;;;;;;18.95;75.34;100658.28;3574820;76;21316;-76
2022/07/04 05:37:55;;;;;;;13.10;11.75;;;;;;;19.21;75.12;100655.16;3632414;75;21455;-77
2022/07/04 05:42:46;;;;;;;11.37;10.37;;;;;;;19.93;74.14;100644.41;3715771;75;20985;-77
2022/07/04 05:47:37;;;;;;;11.17;10.27;;;;;;;19.93;74.14;100644.41;3707942;75;20977;-77
2022/07/04 05:52:28;;;;;;;10.13;9.18;;;;;;;20.45;73.41;100652.86;3706566;75;21154;-77
2022/07/04 05:57:19;;;;;;;8.68;7.97;;;;;;;21.12;72.30;100659.94;3654047;75;21928;-77
2022/07/04 06:02:11;;;;;;;7.62;7.08;;;;;;;21.24;71.93;100658.28;3622746;76;20949;-77
2022/07/04 06:07:02;;;;;;;7.45;6.85;;;;;;;21.26;71.85;100665.70;3634224;77;21453;-76
2022/07/04 06:11:53;;;;;;;6.15;5.70;;;;;;;21.39;71.28;100666.25;3610021;75;20989;-76
2022/07/04 06:16:45;;;;;;;6.70;6.12;;;;;;;21.50;70.97;100673.44;3645020;75;20864;-77
2022/07/04 06:21:36;;;;;;;5.67;5.15;;;;;;;21.66;70.43;100658.45;3628271;75;21861;-77
2022/07/04 06:26:27;;;;;;;6.17;5.67;;;;;;;21.74;69.91;100648.48;3652728;75;20957;-77
2022/07/04 06:31:18;;;;;;;5.62;5.15;;;;;;;21.96;69.45;100652.64;3644529;75;20998;-77
2022/07/04 06:36:09;;;;;;;6.45;5.95;;;;;;;22.23;68.70;100644.73;3623625;75;20942;-77
2022/07/04 06:41:00;;;;;;;6.05;5.47;;;;;;;22.76;67.59;100624.88;3680395;75;21478;-77
2022/07/04 06:45:53;;;;;;;5.17;4.40;;;;;;;23.28;66.18;100630.58;3728555;75;21701;-77
2022/07/04 06:50:45;;;;;;;5.15;4.75;;;;;;;23.48;65.61;100624.05;3632765;76;20978;-77
2022/07/04 06:55:42;;;;;;;6.30;5.20;;;;;;;23.61;65.00;100613.85;3687539;75;21447;-77
2022/07/04 07:00:35;;;;;;;6.25;5.60;;;;;;;24.19;63.48;100610.66;3685054;75;49064;-77
2022/07/04 07:05:27;;;;;;;5.40;4.90;;;;;;;24.84;61.93;100608.83;3653571;75;20935;-77
2022/07/04 07:10:19;;;;;;;6.67;6.08;;;;;;;24.96;60.81;100599.42;3678066;75;22019;-77
2022/07/04 07:15:11;;;;;;;7.47;6.87;;;;;;;24.76;60.93;100599.45;3656767;75;20917;-77
2022/07/04 07:20:03;;;;;;;8.38;7.62;;;;;;;24.29;60.79;100613.34;3678014;75;20973;-77
2022/07/04 07:24:55;;;;;;;7.80;7.03;;;;;;;24.55;59.93;100608.27;3634139;75;20949;-78
2022/07/04 07:29:46;;;;;;;5.85;5.35;;;;;;;26.43;56.33;100597.34;3623001;76;20952;-78
2022/07/04 07:34:37;;;;;;;6.87;6.30;;;;;;;26.61;56.29;100604.45;3536573;77;21915;-80
2022/07/04 07:39:28;;;;;;;6.00;5.45;;;;;;;27.36;54.73;100614.73;3644932;75;20966;-81
2022/07/04 07:44:19;;;;;;;5.33;4.92;;;;;;;30.01;51.15;100606.44;3662499;75;20907;-81
2022/07/04 07:49:11;;;;;;;6.53;5.92;;;;;;;30.15;50.30;100605.98;3618035;75;20938;-80
2022/07/04 07:54:02;;;;;;;4.70;4.40;;;;;;;33.86;45.43;100608.05;3567174;75;21472;-81
2022/07/04 07:58:55;;;;;;;5.37;4.97;;;;;;;36.63;42.16;100608.38;3661276;75;21132;-80
2022/07/04 08:08:57;;;;;;;7.35;5.65;;;;;;;35.75;39.45;100610.25;3683480;75;21554;-80
2022/07/04 08:13:48;;;;;;;5.22;4.78;;;;;;;33.66;39.53;100599.39;3694099;75;21008;-79
2022/07/04 08:18:39;;;;;;;5.62;5.12;;;;;;;33.09;40.42;100598.07;3660141;75;20970;-78
2022/07/04 08:23:33;;;;;;;5.37;4.87;;;;;;;31.96;39.46;100606.28;3676961;75;20954;-78
2022/07/04 08:28:25;;;;;;;5.40;5.00;;;;;;;34.33;38.49;100596.97;3655801;75;20935;-78
2022/07/04 08:33:16;;;;;;;4.12;3.90;;;;;;;37.40;35.42;100596.95;3665080;75;21025;-78
2022/07/04 08:38:09;;;;;;;5.03;4.62;;;;;;;39.77;33.89;100601.03;3616666;75;20977;-77
2022/07/04 08:43:03;;;;;;;3.63;3.33;;;;;;;39.74;33.04;100583.67;3648867;75;20941;-76
2022/07/04 08:48:06;;;;;;;4.42;3.67;;;;;;;38.28;32.49;100597.19;3617952;75;21221;-77
2022/07/04 08:53:03;;;;;;;3.40;3.20;;;;;;;34.63;35.36;100602.05;3624798;75;20949;-77
2022/07/04 09:03:07;;;;;;;3.95;2.77;;;;;;;33.26;36.09;100587.30;3679268;76;20970;-77
2022/07/04 09:07:59;;;;;;;5.67;3.83;;;;;;;35.48;34.45;100592.80;3640630;75;20950;-77
2022/07/04 09:12:51;;;;;;;3.60;3.30;;;;;;;32.76;36.94;100589.48;3685446;75;21210;-77
2022/07/04 09:17:42;;;;;;;3.33;3.12;;;;;;;30.90;38.30;100590.10;3649717;75;20966;-76
2022/07/04 09:22:33;;;;;;;3.52;3.30;;;;;;;30.58;38.58;100585.64;3639051;76;21008;-79
2022/07/04 09:27:44;;;;;;;3.20;2.92;;;;;;;29.91;39.98;100603.97;3655297;75;20975;-75
2022/07/04 09:32:59;;;;;;;3.85;3.05;;;;;;;29.18;41.09;100602.36;3634869;77;20937;-76
2022/07/04 09:37:53;;;;;;;5.40;2.70;;;;;;;28.35;41.22;100598.02;3642598;77;21162;-76
2022/07/04 09:42:44;;;;;;;3.00;2.80;;;;;;;28.87;41.52;100604.73;3615765;77;20974;-76
2022/07/04 09:47:36;;;;;;;4.40;2.52;;;;;;;29.25;40.60;100614.41;3645795;76;20926;-75
2022/07/04 09:52:29;;;;;;;3.00;2.70;;;;;;;28.69;41.58;100602.70;3614019;76;20945;-76
2022/07/04 09:57:22;;;;;;;5.25;2.87;;;;;;;29.06;41.48;100601.75;3676052;76;20962;-76
2022/07/04 10:02:14;;;;;;;3.22;2.87;;;;;;;32.91;37.91;100592.78;3617286;76;21459;-84
2022/07/04 10:07:06;;;;;;;4.28;2.42;;;;;;;34.44;35.99;100592.84;3610862;76;21467;-85
2022/07/04 10:11:57;;;;;;;2.62;2.42;;;;;;;35.36;33.49;100600.19;3670547;76;20969;-79
2022/07/04 10:16:49;;;;;;;2.00;1.90;;;;;;;35.96;33.44;100602.02;3624329;76;20977;-79
2022/07/04 10:21:40;;;;;;;2.37;1.92;;;;;;;35.46;32.95;100586.69;3576233;77;20956;-79
2022/07/04 10:26:32;;;;;;;1.77;1.67;;;;;;;34.90;32.10;100586.17;3556357;79;21069;-79
2022/07/04 10:31:26;;;;;;;2.50;2.05;;;;;;;32.99;33.92;100591.20;3474514;80;20996;-84
2022/07/04 10:36:27;;;;;;;2.10;1.65;;;;;;;33.07;34.03;100585.19;3466419;80;21444;-78
2022/07/04 10:41:24;;;;;;;2.45;1.85;;;;;;;33.72;32.98;100593.01;3492109;78;20905;-83
2022/07/04 10:46:23;;;;;;;4.53;1.75;;;;;;;33.47;33.43;100581.17;3545823;78;21025;-81
2022/07/04 10:51:15;;;;;;;2.60;2.25;;;;;;;33.65;34.27;100580.98;3538757;78;21664;-81
2022/07/04 10:56:21;;;;;;;2.83;2.00;;;;;;;34.16;33.19;100586.21;3519941;78;21456;-81
2022/07/04 11:01:18;;;;;;;4.92;2.87;;;;;;;33.98;31.69;100592.66;3605101;77;20952;-86
2022/07/04 11:06:36;;;;;;;2.80;1.98;;;;;;;34.59;32.49;100573.61;3608642;77;20931;-87
2022/07/04 11:11:53;;;;;;;2.15;1.95;;;;;;;34.27;33.12;100568.67;3568174;78;20912;-84
2022/07/04 11:16:53;;;;;;;2.33;2.12;;;;;;;33.56;32.55;100569.63;3502270;80;21089;-83
2022/07/04 11:21:44;;;;;;;2.72;1.80;;;;;;;33.28;33.30;100566.48;3361852;82;20977;-81
2022/07/04 11:26:36;;;;;;;2.58;2.37;;;;;;;32.77;34.30;100554.86;3439697;82;21591;-81
2022/07/04 11:31:45;;;;;;;2.52;2.25;;;;;;;32.36;35.22;100558.43;3429706;81;21037;-80
2022/07/04 11:36:40;;;;;;;3.02;2.02;;;;;;;32.48;36.23;100561.98;3334673;82;20977;-84
2022/07/04 11:46:48;;;;;;;2.58;2.37;;;;;;;31.92;34.37;100543.82;3467102;80;21528;-81
2022/07/04 11:51:49;;;;;;;3.52;2.35;;;;;;;32.04;36.44;100547.45;3461897;77;21429;-82
2022/07/04 11:56:40;;;;;;;3.60;2.25;;;;;;;31.70;36.05;100540.56;3586632;78;21002;-86
2022/07/04 12:01:31;;;;;;;2.37;2.17;;;;;;;31.48;35.99;100540.81;3569434;78;20962;-86
2022/07/04 12:06:22;;;;;;;1.90;1.80;;;;;;;31.22;36.29;100537.80;3605246;78;21125;-82
2022/07/04 12:11:13;;;;;;;2.10;2.00;;;;;;;30.91;36.24;100538.64;3589317;77;21552;-83
2022/07/04 12:16:11;;;;;;;3.83;2.10;;;;;;;30.79;35.99;100523.77;3598984;78;21328;-85
2022/07/04 12:21:22;;;;;;;3.02;2.47;;;;;;;30.64;35.41;100518.16;3591645;77;21021;-82
2022/07/04 12:26:13;;;;;;;4.10;2.58;;;;;;;30.77;36.03;100520.34;3529058;78;20951;-79
2022/07/04 12:31:04;;;;;;;2.27;2.10;;;;;;;30.64;35.91;100512.80;3559699;77;21048;-82
2022/07/04 12:36:03;;;;;;;3.45;2.20;;;;;;;30.57;37.53;100520.41;3629736;77;20938;-80
2022/07/04 12:41:05;;;;;;;2.42;1.98;;;;;;;30.69;36.26;100522.73;3467495;80;20917;-83
2022/07/04 12:45:56;;;;;;;3.50;2.40;;;;;;;30.95;36.75;100524.91;3503021;80;20954;-83
2022/07/04 12:50:48;;;;;;;4.45;2.50;;;;;;;30.89;36.12;100530.70;3563027;77;21006;-82
2022/07/04 12:55:48;;;;;;;3.25;2.27;;;;;;;30.55;36.57;100516.14;3580249;78;21468;-83
2022/07/04 13:00:41;;;;;;;2.25;2.05;;;;;;;30.29;37.11;100521.44;3608835;77;21435;-80
2022/07/04 13:05:35;;;;;;;3.05;2.40;;;;;;;30.03;37.01;100530.80;3512760;78;20931;-80
2022/07/04 13:10:27;;;;;;;2.92;1.98;;;;;;;29.78;37.80;100525.34;3623824;77;21014;-79
2022/07/04 13:15:18;;;;;;;2.72;2.35;;;;;;;29.78;37.78;100525.34;3543453;78;20953;-79
2022/07/04 13:20:12;;;;;;;4.53;2.70;;;;;;;29.82;37.44;100524.20;3589944;78;21591;-80
2022/07/04 13:25:06;;;;;;;2.40;2.17;;;;;;;29.74;38.07;100519.78;3597960;77;20938;-81
2022/07/04 13:29:57;;;;;;;4.22;3.12;;;;;;;29.68;37.52;100520.20;3572490;78;21005;-79
2022/07/04 13:34:49;;;;;;;3.62;2.17;;;;;;;29.63;38.41;100518.67;3602229;78;20923;-78
2022/07/04 13:39:41;;;;;;;4.83;2.72;;;;;;;29.70;38.89;100510.24;3525991;78;20958;-84
2022/07/04 13:44:32;;;;;;;2.72;2.50;;;;;;;29.81;38.43;100510.41;3502575;80;21166;-84
2022/07/04 13:49:24;;;;;;;2.62;2.42;;;;;;;30.25;38.54;100505.69;3503205;78;21419;-81
2022/07/04 13:54:15;;;;;;;5.67;2.10;;;;;;;30.99;36.45;100501.39;3553980;78;21124;-80
2022/07/04 13:59:06;;;;;;;2.30;2.02;;;;;;;31.16;36.08;100509.08;3563262;77;21482;-80
2022/07/04 14:03:57;;;;;;;3.60;2.60;;;;;;;30.98;35.70;100509.09;3554870;77;20939;-81
2022/07/04 14:08:48;;;;;;;3.60;2.60;;;;;;;30.55;35.90;100507.59;3524879;79;21502;-82
2022/07/04 14:13:40;;;;;;;3.47;2.75;;;;;;;31.05;36.11;100503.64;3646932;76;20950;-80
2022/07/04 14:18:32;;;;;;;3.80;2.10;;;;;;;31.28;35.95;100507.34;3582042;76;20928;-83
2022/07/04 14:23:41;;;;;;;8.40;2.37;;;;;;;31.43;35.56;100506.68;3648225;76;21681;-81
2022/07/04 14:28:33;;;;;;;2.77;2.60;;;;;;;31.66;36.13;100494.75;3655173;77;20958;-80
2022/07/04 14:33:25;;;;;;;2.42;2.12;;;;;;;31.89;35.66;100492.51;3594169;76;20966;-81
2022/07/04 14:38:16;;;;;;;2.72;2.52;;;;;;;31.43;35.25;100504.00;3657531;76;20971;-83
2022/07/04 14:43:07;;;;;;;7.05;3.00;;;;;;;31.20;35.94;100496.29;3685843;75;22221;-85
2022/07/04 14:47:58;;;;;;;3.57;2.40;;;;;;;31.29;35.80;100497.45;3653042;76;21744;-82
2022/07/04 14:52:50;;;;;;;2.35;2.25;;;;;;;31.60;35.60;100489.32;3665920;75;21006;-82
2022/07/04 14:57:42;;;;;;;2.75;2.25;;;;;;;31.71;36.02;100491.20;3698459;75;21531;-83
2022/07/04 15:02:34;;;;;;;2.58;2.37;;;;;;;31.66;35.57;100486.69;3673651;75;20992;-82
2022/07/04 15:07:25;;;;;;;2.77;2.30;;;;;;;31.45;34.69;100492.64;3641473;76;20984;-82
2022/07/04 15:12:17;;;;;;;3.17;2.45;;;;;;;31.42;35.40;100489.33;3640145;76;20937;-81
2022/07/04 15:17:08;;;;;;;3.27;2.08;;;;;;;31.13;35.03;100491.84;3679229;75;20997;-82
2022/07/04 15:27:09;;;;;;;2.65;2.45;;;;;;;31.14;35.40;100496.75;3695011;75;20957;-81
2022/07/04 15:32:00;;;;;;;2.40;2.20;;;;;;;31.22;35.76;100496.18;3720855;76;20998;-85
2022/07/04 15:36:51;;;;;;;2.53;2.33;;;;;;;30.88;35.20;100483.83;3649847;76;20857;-77
2022/07/04 15:41:44;;;;;;;4.72;2.87;;;;;;;30.46;35.84;100481.89;3578338;77;21005;-77
2022/07/04 15:47:07;;;;;;;2.15;1.95;;;;;;;29.87;36.55;100484.55;3563009;77;21333;-73
2022/07/04 15:51:29;;;;;;;4.22;2.10;;;;;;;29.51;37.49;100481.13;3597014;77;20993;-73
2022/07/04 15:56:22;;;;;;;2.60;2.30;;;;;;;29.30;37.90;100475.36;3569247;78;20930;-73
2022/07/04 16:01:13;;;;;;;3.12;2.60;;;;;;;29.36;37.64;100460.25;3584659;78;20946;-73
2022/07/04 16:06:04;;;;;;;2.45;2.25;;;;;;;29.74;38.33;100479.59;3576654;78;20911;-78
2022/07/04 16:10:56;;;;;;;2.35;2.15;;;;;;;29.96;37.23;100491.97;3608873;78;22861;-76
2022/07/04 16:15:47;;;;;;;2.60;2.40;;;;;;;29.46;37.54;100488.15;3614969;78;20962;-76
2022/07/04 16:20:38;;;;;;;2.70;2.47;;;;;;;28.93;37.92;100491.95;3529396;78;20994;-76
2022/07/04 16:25:29;;;;;;;3.05;2.52;;;;;;;28.61;38.43;100488.63;3613435;77;21457;-76
2022/07/04 16:30:21;;;;;;;3.35;2.40;;;;;;;28.33;38.63;100487.61;3561142;78;21211;-76
2022/07/04 16:35:12;;;;;;;3.37;2.20;;;;;;;28.05;38.98;100491.97;3552561;77;22148;-76
2022/07/04 16:40:05;;;;;;;3.22;2.27;;;;;;;27.88;38.98;100501.42;3600219;77;21252;-75
2022/07/04 16:44:57;;;;;;;2.72;2.52;;;;;;;27.82;39.27;100481.76;3485156;79;20903;-76
2022/07/04 16:49:48;;;;;;;2.27;2.17;;;;;;;27.85;39.57;100484.22;3533450;79;20944;-76
2022/07/04 16:54:40;;;;;;;2.20;2.10;;;;;;;27.88;39.74;100481.38;3531886;79;21244;-75
2022/07/04 16:59:31;;;;;;;4.15;2.85;;;;;;;27.83;39.39;100480.79;3502726;79;21508;-76
2022/07/04 17:04:23;;;;;;;2.98;2.70;;;;;;;27.69;40.23;100478.47;3503112;79;20955;-75
2022/07/04 17:09:14;;;;;;;2.47;2.33;;;;;;;27.52;40.33;100477.25;3605519;78;20982;-76
2022/07/04 17:14:05;;;;;;;3.30;2.37;;;;;;;27.44;40.69;100472.84;3556815;78;20952;-76
2022/07/04 17:18:56;;;;;;;3.10;2.75;;;;;;;27.34;40.57;100462.66;3540396;79;20935;-75
2022/07/04 17:23:47;;;;;;;4.55;3.37;;;;;;;27.29;40.61;100458.06;3495303;79;21534;-76
2022/07/04 17:28:38;;;;;;;4.75;2.50;;;;;;;27.27;41.45;100467.97;3451168;78;20992;-75
2022/07/04 17:33:30;;;;;;;3.67;2.92;;;;;;;27.19;41.98;100467.52;3468875;80;20969;-76
2022/07/04 17:38:21;;;;;;;3.10;2.85;;;;;;;27.08;42.28;100470.80;3532779;79;20998;-75
2022/07/04 17:43:12;;;;;;;3.27;2.98;;;;;;;26.96;42.30;100463.47;3532988;79;20947;-75
2022/07/04 17:48:03;;;;;;;3.00;2.80;;;;;;;26.88;42.95;100463.02;3506016;79;20934;-75
2022/07/04 17:52:56;;;;;;;5.75;2.95;;;;;;;26.80;43.25;100459.45;3438588;79;20931;-75
2022/07/04 17:57:47;;;;;;;3.55;2.70;;;;;;;26.71;43.87;100450.63;3524578;79;20997;-75
2022/07/04 18:02:38;;;;;;;6.03;3.60;;;;;;;26.69;44.45;100449.86;3515548;79;20972;-76
2022/07/04 18:07:30;;;;;;;4.05;3.17;;;;;;;26.65;45.38;100448.28;3466926;79;20979;-75
2022/07/04 18:12:21;;;;;;;3.50;2.80;;;;;;;26.59;45.99;100447.63;3554305;77;21138;-75
2022/07/04 18:17:13;;;;;;;3.83;3.52;;;;;;;26.50;45.36;100448.14;3488114;79;21495;-75
2022/07/04 18:22:04;;;;;;;3.10;2.77;;;;;;;26.39;45.96;100456.70;3534477;79;20927;-76
2022/07/04 18:26:55;;;;;;;4.08;3.60;;;;;;;26.27;46.12;100463.16;3556624;77;21506;-75
2022/07/04 18:31:52;;;;;;;3.15;2.95;;;;;;;26.10;46.28;100477.37;3640115;77;20949;-75
2022/07/04 18:36:43;;;;;;;3.55;3.25;;;;;;;25.85;46.81;100483.44;3642740;76;21450;-75
2022/07/04 18:46:46;;;;;;;3.77;2.95;;;;;;;25.45;47.84;100484.09;3606932;76;20966;-78
2022/07/04 18:51:37;;;;;;;6.00;3.62;;;;;;;25.21;47.68;100491.42;3614098;76;21017;-78
2022/07/04 18:56:28;;;;;;;3.98;3.30;;;;;;;25.01;48.65;100497.69;3604341;76;20934;-78
2022/07/04 19:01:19;;;;;;;4.45;3.37;;;;;;;24.90;48.95;100511.48;3609894;76;22152;-78
2022/07/04 19:06:11;;;;;;;5.72;3.37;;;;;;;24.79;48.95;100508.91;3617218;76;21001;-78
2022/07/04 19:11:02;;;;;;;3.77;3.47;;;;;;;24.68;49.97;100502.30;3553765;77;20952;-78
2022/07/04 19:15:53;;;;;;;7.83;3.85;;;;;;;24.58;49.71;100499.66;3556829;77;20965;-78
2022/07/04 19:20:45;;;;;;;3.50;3.27;;;;;;;24.45;50.24;100499.75;3616587;77;20976;-78
2022/07/04 19:25:38;;;;;;;3.58;3.10;;;;;;;24.36;50.17;100495.26;3622243;77;21418;-78
2022/07/04 19:30:30;;;;;;;3.90;3.50;;;;;;;24.26;50.48;100499.23;3632897;76;21470;-78
2022/07/04 19:35:21;;;;;;;3.95;3.62;;;;;;;24.14;50.11;100491.80;3599032;76;20932;-78
2022/07/04 19:40:13;;;;;;;3.92;3.60;;;;;;;24.05;50.40;100504.15;3586757;76;20935;-78
2022/07/04 19:45:06;;;;;;;3.80;3.50;;;;;;;23.95;50.32;100512.51;3646633;76;21012;-78
2022/07/04 19:49:57;;;;;;;3.98;3.67;;;;;;;23.85;50.88;100519.13;3605067;76;21252;-78
2022/07/04 19:54:48;;;;;;;10.20;5.17;;;;;;;23.67;51.24;100519.85;3617431;76;20965;-77
2022/07/04 19:59:39;;;;;;;4.58;3.80;;;;;;;23.47;51.84;100514.88;3636164;76;20928;-78
2022/07/04 20:04:31;;;;;;;4.50;4.10;;;;;;;23.35;52.29;100519.34;3679714;76;20965;-77
2022/07/04 20:09:22;;;;;;;4.97;4.58;;;;;;;23.15;52.24;100517.47;3632089;76;20969;-77
2022/07/04 20:14:14;;;;;;;8.08;5.17;;;;;;;23.04;52.90;100516.52;3614470;77;20947;-77
2022/07/04 20:19:05;;;;;;;8.83;5.42;;;;;;;22.91;53.46;100526.73;3613545;77;21008;-77
2022/07/04 20:23:56;;;;;;;6.03;5.53;;;;;;;22.77;53.91;100531.21;3622578;76;20923;-77
2022/07/04 20:28:47;;;;;;;7.13;5.50;;;;;;;22.61;54.62;100530.05;3714291;75;20950;-77
2022/07/04 20:33:39;;;;;;;7.00;5.60;;;;;;;22.48;54.87;100543.30;3633252;76;21098;-78
2022/07/04 20:38:32;;;;;;;6.30;5.53;;;;;;;22.31;55.32;100536.81;3629862;76;20973;-78
2022/07/04 20:43:23;;;;;;;9.75;6.03;;;;;;;22.13;55.70;100544.05;3653243;75;21408;-79
2022/07/04 20:48:15;;;;;;;6.97;6.08;;;;;;;21.93;56.40;100546.89;3585784;75;21779;-79
2022/07/04 20:53:07;;;;;;;7.35;6.55;;;;;;;21.80;56.96;100550.84;3593811;75;20946;-79
2022/07/04 20:57:58;;;;;;;6.42;5.90;;;;;;;21.65;57.64;100562.32;3646256;76;21008;-79
2022/07/04 21:02:49;;;;;;;7.70;6.80;;;;;;;21.54;57.75;100559.16;3628596;75;21180;-78
2022/07/04 21:07:41;;;;;;;10.88;7.35;;;;;;;21.42;58.10;100566.11;3678195;76;21270;-78
2022/07/04 21:12:33;;;;;;;8.28;6.35;;;;;;;21.23;58.40;100567.99;3608172;75;21369;-79
2022/07/04 21:17:25;;;;;;;6.60;6.05;;;;;;;21.06;59.02;100569.78;3656163;76;20894;-79
2022/07/04 21:22:16;;;;;;;10.82;7.33;;;;;;;20.93;59.51;100576.34;3648241;77;21025;-79
2022/07/04 21:27:07;;;;;;;8.18;6.45;;;;;;;20.80;59.82;100580.22;3623165;76;21366;-79
2022/07/04 21:31:59;;;;;;;12.75;6.75;;;;;;;20.69;60.27;100587.13;3699641;76;21425;-79
2022/07/04 21:36:51;;;;;;;10.00;7.17;;;;;;;20.60;60.63;100580.73;3657911;75;20997;-78
2022/07/04 21:41:42;;;;;;;9.13;7.42;;;;;;;20.50;60.88;100580.98;3575017;75;20857;-79
2022/07/04 21:46:34;;;;;;;9.78;6.87;;;;;;;20.38;61.24;100582.63;3626065;76;21416;-79
2022/07/04 21:51:25;;;;;;;9.05;7.30;;;;;;;20.32;61.44;100584.97;3610815;76;21323;-79
2022/07/04 21:56:16;;;;;;;8.48;7.58;;;;;;;20.28;61.63;100587.28;3578833;76;21710;-79
2022/07/04 22:01:07;;;;;;;8.78;6.58;;;;;;;20.21;62.00;100594.05;3636184;76;21249;-79
2022/07/04 22:05:58;;;;;;;8.63;7.72;;;;;;;20.13;62.01;100605.67;3595435;76;20997;-79
2022/07/04 22:10:50;;;;;;;8.95;7.62;;;;;;;20.02;62.34;100598.47;3661946;76;21538;-79
2022/07/04 22:15:41;;;;;;;8.75;7.78;;;;;;;19.95;62.49;100610.08;3600840;77;21265;-78
2022/07/04 22:20:32;;;;;;;9.00;8.10;;;;;;;19.93;63.02;100603.97;3624166;77;20977;-79
2022/07/04 22:25:23;;;;;;;7.65;6.95;;;;;;;19.87;63.18;100610.70;3612906;77;21043;-79
2022/07/04 22:30:15;;;;;;;8.40;7.53;;;;;;;19.80;63.28;100605.58;3566270;77;21476;-79
2022/07/04 22:35:07;;;;;;;8.68;7.60;;;;;;;19.75;63.52;100608.77;3612351;76;21647;-79
2022/07/04 22:39:59;;;;;;;7.83;7.08;;;;;;;19.68;63.66;100600.55;3614290;76;22111;-79
2022/07/04 22:44:50;;;;;;;11.20;8.88;;;;;;;19.60;63.84;100601.16;3693836;76;20891;-79
2022/07/04 22:49:41;;;;;;;8.10;7.45;;;;;;;19.53;64.00;100599.55;3646907;76;20945;-79
2022/07/04 22:54:51;;;;;;;8.20;6.87;;;;;;;19.43;64.13;100602.39;3693727;75;21059;-79
2022/07/04 22:59:42;;;;;;;8.00;7.17;;;;;;;19.35;64.50;100596.44;3632550;76;21447;-79
2022/07/04 23:04:33;;;;;;;8.28;7.03;;;;;;;19.28;64.89;100588.24;3656063;76;21983;-79
2022/07/04 23:09:25;;;;;;;7.20;6.60;;;;;;;19.26;65.19;100593.97;3610954;77;22141;-79
2022/07/04 23:14:17;;;;;;;8.18;7.47;;;;;;;19.17;65.40;100588.89;3639167;77;20981;-79